createdAt,value
2022-10-11T00:00:24.086Z,9.280022
2022-10-11T00:01:24.115Z,9.280025
2022-10-11T00:02:26.397Z,9.279986
2022-10-11T00:03:25.029Z,9.279992
2022-10-11T00:04:24.036Z,9.279894
2022-10-11T00:05:23.989Z,9.280017
2022-10-11T00:06:23.979Z,9.279961
2022-10-11T00:07:23.955Z,9.279912
2022-10-11T00:08:23.940Z,9.280012
2022-10-11T00:09:23.949Z,9.280005
2022-10-11T00:10:23.902Z,9.279923
2022-10-11T00:11:23.883Z,9.279946
2022-10-11T00:12:23.865Z,9.279984
2022-10-11T00:13:23.853Z,9.279977
2022-10-11T00:14:23.862Z,9.279932
2022-10-11T00:15:23.824Z,9.279911
2022-10-11T00:16:23.799Z,9.279947
2022-10-11T00:17:23.777Z,9.279906
2022-10-11T00:18:23.761Z,9.279878
2022-10-11T00:19:23.773Z,9.279865
2022-10-11T00:20:23.722Z,9.279965
2022-10-11T00:21:23.703Z,9.279927
2022-10-11T00:22:23.686Z,9.280001
2022-10-11T00:23:23.668Z,9.280011
2022-10-11T00:24:23.686Z,9.279960
2022-10-11T00:25:23.633Z,9.279922
2022-10-11T00:26:23.615Z,9.279964
2022-10-11T00:27:23.597Z,9.279967
2022-10-11T00:28:23.633Z,9.279934
2022-10-11T00:29:23.572Z,9.279971
2022-10-11T00:30:23.568Z,9.279955
2022-10-11T00:31:23.529Z,9.279961
2022-10-11T00:32:23.506Z,9.279939
2022-10-11T00:33:23.489Z,9.279947
2022-10-11T00:34:23.459Z,9.279900
2022-10-11T00:35:24.480Z,9.279930
2022-10-11T00:36:23.432Z,9.279883
2022-10-11T00:37:23.408Z,9.279903
2022-10-11T00:38:23.392Z,9.279932
2022-10-11T00:39:23.377Z,9.279926
2022-10-11T00:40:23.392Z,9.279934
2022-10-11T00:41:23.334Z,9.279961
2022-10-11T00:42:23.320Z,9.279948
2022-10-11T00:43:23.305Z,9.279899
2022-10-11T00:44:23.286Z,9.279977
2022-10-11T00:45:23.288Z,9.279990
2022-10-11T00:46:23.234Z,9.279932
2022-10-11T00:47:24.223Z,9.279863
2022-10-11T00:48:23.216Z,9.279862
2022-10-11T00:49:23.189Z,9.279817
2022-10-11T00:50:23.199Z,9.279801
2022-10-11T00:51:23.150Z,9.279803
2022-10-11T00:52:23.132Z,9.279760
2022-10-11T00:53:23.113Z,9.279933
2022-10-11T00:54:23.106Z,9.279990
2022-10-11T00:55:23.092Z,9.280048
2022-10-11T00:56:24.057Z,9.279928
2022-10-11T00:57:23.040Z,9.279869
2022-10-11T00:58:23.021Z,9.279889
2022-10-11T00:59:22.999Z,9.279833
2022-10-11T01:00:23.008Z,9.279854
2022-10-11T01:01:23.018Z,9.279886
2022-10-11T01:02:22.946Z,9.279892
2022-10-11T01:03:22.924Z,9.279943
2022-10-11T01:04:22.914Z,9.279822
2022-10-11T01:05:29.719Z,9.279957
2022-10-11T01:06:24.873Z,9.280027
2022-10-11T01:07:22.854Z,9.280035
2022-10-11T01:08:22.836Z,9.280055
2022-10-11T01:09:22.814Z,9.280020
2022-10-11T01:10:22.822Z,9.279955
2022-10-11T01:11:22.774Z,9.279953
2022-10-11T01:12:22.759Z,9.280005
2022-10-11T01:13:22.740Z,9.279973
2022-10-11T01:14:22.730Z,9.279940
2022-10-11T01:15:22.736Z,9.279953
2022-10-11T01:16:22.682Z,9.280022
2022-10-11T01:17:22.669Z,9.280005
2022-10-11T01:18:22.639Z,9.280056
2022-10-11T01:19:23.629Z,9.279944
2022-10-11T01:20:22.637Z,9.279967
2022-10-11T01:21:22.591Z,9.279973
2022-10-11T01:22:22.588Z,9.279940
2022-10-11T01:23:22.553Z,9.280006
2022-10-11T01:24:22.537Z,9.279971
2022-10-11T01:25:22.545Z,9.279993
2022-10-11T01:26:22.501Z,9.279973
2022-10-11T01:27:22.483Z,9.280002
2022-10-11T01:28:22.655Z,9.279985
2022-10-11T01:29:22.472Z,9.279942
2022-10-11T01:30:22.477Z,9.279963
2022-10-11T01:31:22.408Z,9.280023
2022-10-11T01:32:22.387Z,9.279903
2022-10-11T01:33:22.371Z,9.280019
2022-10-11T01:34:22.351Z,9.280049
2022-10-11T01:35:22.371Z,9.280043
2022-10-11T01:36:22.311Z,9.280072
2022-10-11T01:37:22.292Z,9.279986
2022-10-11T01:38:22.273Z,9.280063
2022-10-11T01:39:22.262Z,9.280017
2022-10-11T01:40:22.265Z,9.279999
2022-10-11T01:41:22.224Z,9.280097
2022-10-11T01:42:22.215Z,9.280087
2022-10-11T01:43:22.186Z,9.279980
2022-10-11T01:44:22.169Z,9.279932
2022-10-11T01:45:22.172Z,9.280022
2022-10-11T01:46:22.130Z,9.280049
2022-10-11T01:47:22.110Z,9.280090
2022-10-11T01:48:22.089Z,9.280097
2022-10-11T01:49:22.066Z,9.280109
2022-10-11T01:50:22.086Z,9.280051
2022-10-11T01:51:22.033Z,9.279998
2022-10-11T01:52:22.020Z,9.279993
2022-10-11T01:53:21.998Z,9.280142
2022-10-11T01:54:21.975Z,9.280327
2022-10-11T01:55:21.988Z,9.280205
2022-10-11T01:56:21.935Z,9.280004
2022-10-11T01:57:21.926Z,9.279906
2022-10-11T01:58:21.904Z,9.280026
2022-10-11T01:59:21.882Z,9.280049
2022-10-11T02:00:21.893Z,9.280029
2022-10-11T02:01:21.888Z,9.280095
2022-10-11T02:02:21.826Z,9.280103
2022-10-11T02:03:21.808Z,9.280042
2022-10-11T02:04:21.790Z,9.280027
2022-10-11T02:05:21.802Z,9.280059
2022-10-11T02:06:21.751Z,9.279831
2022-10-11T02:07:21.734Z,9.279787
2022-10-11T02:08:21.864Z,9.279769
2022-10-11T02:09:21.701Z,9.279848
2022-10-11T02:10:21.709Z,9.279775
2022-10-11T02:11:21.661Z,9.279836
2022-10-11T02:12:21.643Z,9.279922
2022-10-11T02:13:21.628Z,9.279851
2022-10-11T02:14:21.609Z,9.279813
2022-10-11T02:15:21.611Z,9.279775
2022-10-11T02:16:21.571Z,9.279896
2022-10-11T02:17:21.556Z,9.279883
2022-10-11T02:18:21.536Z,9.279757
2022-10-11T02:19:21.514Z,9.279580
2022-10-11T02:20:21.532Z,9.279744
2022-10-11T02:21:21.482Z,9.279913
2022-10-11T02:22:21.462Z,9.279754
2022-10-11T02:23:21.444Z,9.279789
2022-10-11T02:24:21.429Z,9.279988
2022-10-11T02:25:21.436Z,9.279903
2022-10-11T02:26:21.390Z,9.279832
2022-10-11T02:27:21.371Z,9.279650
2022-10-11T02:28:21.369Z,9.279785
2022-10-11T02:29:21.342Z,9.279867
2022-10-11T02:30:21.347Z,9.279808
2022-10-11T02:31:21.305Z,9.279898
2022-10-11T02:32:21.279Z,9.279814
2022-10-11T02:33:21.273Z,9.279894
2022-10-11T02:34:21.251Z,9.279874
2022-10-11T02:35:21.254Z,9.279922
2022-10-11T02:36:21.215Z,9.279960
2022-10-11T02:37:21.200Z,9.279908
2022-10-11T02:38:21.177Z,9.279997
2022-10-11T02:39:21.162Z,9.279998
2022-10-11T02:40:21.161Z,9.279965
2022-10-11T02:41:21.124Z,9.279841
2022-10-11T02:42:21.097Z,9.279798
2022-10-11T02:43:21.088Z,9.279892
2022-10-11T02:44:21.063Z,9.279948
2022-10-11T02:45:21.071Z,9.279883
2022-10-11T02:46:21.031Z,9.279833
2022-10-11T02:47:21.007Z,9.279830
2022-10-11T02:48:20.991Z,9.279791
2022-10-11T02:49:20.978Z,9.279806
2022-10-11T02:50:20.986Z,9.279874
2022-10-11T02:51:20.937Z,9.279881
2022-10-11T02:52:20.925Z,9.279953
2022-10-11T02:53:20.899Z,9.279877
2022-10-11T02:54:20.879Z,9.279898
2022-10-11T02:55:20.888Z,9.279863
2022-10-11T02:56:20.839Z,9.279810
2022-10-11T02:57:20.831Z,9.279862
2022-10-11T02:58:20.801Z,9.279820
2022-10-11T02:59:20.786Z,9.279824
2022-10-11T03:00:20.806Z,9.279804
2022-10-11T03:01:20.792Z,9.279799
2022-10-11T03:02:20.724Z,9.279828
2022-10-11T03:03:20.715Z,9.279843
2022-10-11T03:04:20.696Z,9.279855
2022-10-11T03:05:20.706Z,9.279872
2022-10-11T03:06:20.682Z,9.279878
2022-10-11T03:07:20.642Z,9.279862
2022-10-11T03:08:20.624Z,9.279863
2022-10-11T03:09:20.613Z,9.279860
2022-10-11T03:10:20.617Z,9.279900
2022-10-11T03:11:20.583Z,9.279872
2022-10-11T03:12:20.555Z,9.279726
2022-10-11T03:13:20.537Z,9.279846
2022-10-11T03:14:20.520Z,9.279871
2022-10-11T03:15:20.531Z,9.279862
2022-10-11T03:16:20.504Z,9.279714
2022-10-11T03:17:35.668Z,9.279825
2022-10-11T03:18:22.447Z,9.279797
2022-10-11T03:19:20.415Z,9.279879
2022-10-11T03:20:21.412Z,9.279846
2022-10-11T03:21:20.409Z,9.279899
2022-10-11T03:22:20.372Z,9.279852
2022-10-11T03:23:20.344Z,9.279883
2022-10-11T03:24:20.326Z,9.279942
2022-10-11T03:25:20.313Z,9.279857
2022-10-11T03:26:20.319Z,9.279862
2022-10-11T03:27:20.279Z,9.279903
2022-10-11T03:28:20.291Z,9.279932
2022-10-11T03:29:20.239Z,9.279926
2022-10-11T03:30:20.224Z,9.279910
2022-10-11T03:31:20.234Z,9.279880
2022-10-11T03:32:20.187Z,9.279843
2022-10-11T03:33:20.168Z,9.279905
2022-10-11T03:34:20.145Z,9.279884
2022-10-11T03:35:20.134Z,9.279950
2022-10-11T03:36:20.137Z,9.279938
2022-10-11T03:37:20.091Z,9.279927
2022-10-11T03:38:20.078Z,9.279917
2022-10-11T03:39:20.059Z,9.279804
2022-10-11T03:40:20.040Z,9.279903
2022-10-11T03:41:20.050Z,9.279938
2022-10-11T03:42:20.006Z,9.279967
2022-10-11T03:43:19.988Z,9.279965
2022-10-11T03:44:19.965Z,9.279996
2022-10-11T03:45:19.943Z,9.280080
2022-10-11T03:46:19.966Z,9.279984
2022-10-11T03:47:19.909Z,9.279935
2022-10-11T03:48:19.884Z,9.279913
2022-10-11T03:49:19.869Z,9.279948
2022-10-11T03:50:19.851Z,9.279980
2022-10-11T03:51:19.860Z,9.279925
2022-10-11T03:52:19.818Z,9.279984
2022-10-11T03:53:19.791Z,9.280132
2022-10-11T03:54:19.779Z,9.280044
2022-10-11T03:55:19.759Z,9.280033
2022-10-11T03:56:19.767Z,9.279943
2022-10-11T03:57:19.716Z,9.279876
2022-10-11T03:58:19.707Z,9.279991
2022-10-11T03:59:19.683Z,9.280033
2022-10-11T04:00:19.667Z,9.280025
2022-10-11T04:01:19.729Z,9.279940
2022-10-11T04:02:19.621Z,9.280003
2022-10-11T04:03:19.617Z,9.280025
2022-10-11T04:04:19.597Z,9.280083
2022-10-11T04:05:19.572Z,9.280059
2022-10-11T04:06:19.584Z,9.280065
2022-10-11T04:07:19.548Z,9.280001
2022-10-11T04:08:19.518Z,9.280047
2022-10-11T04:09:19.496Z,9.280013
2022-10-11T04:10:19.480Z,9.280026
2022-10-11T04:11:19.486Z,9.280051
2022-10-11T04:12:19.473Z,9.279993
2022-10-11T04:13:19.437Z,9.280161
2022-10-11T04:14:19.403Z,9.280021
2022-10-11T04:15:19.384Z,9.280051
2022-10-11T04:16:19.396Z,9.280110
2022-10-11T04:17:19.348Z,9.279930
2022-10-11T04:18:19.330Z,9.279845
2022-10-11T04:19:19.312Z,9.279912
2022-10-11T04:20:19.295Z,9.280023
2022-10-11T04:21:19.306Z,9.279967
2022-10-11T04:22:19.255Z,9.279929
2022-10-11T04:23:19.260Z,9.279994
2022-10-11T04:24:19.220Z,9.279965
2022-10-11T04:25:20.119Z,9.279964
2022-10-11T04:26:19.218Z,9.279977
2022-10-11T04:27:19.168Z,9.279965
2022-10-11T04:28:19.190Z,9.279983
2022-10-11T04:29:19.136Z,9.280009
2022-10-11T04:30:19.131Z,9.280049
2022-10-11T04:31:19.144Z,9.280009
2022-10-11T04:32:19.085Z,9.279962
2022-10-11T04:33:19.061Z,9.280003
2022-10-11T04:34:19.044Z,9.280009
2022-10-11T04:35:19.026Z,9.279920
2022-10-11T04:36:19.035Z,9.279944
2022-10-11T04:37:18.983Z,9.280025
2022-10-11T04:38:18.971Z,9.279983
2022-10-11T04:39:18.949Z,9.279917
2022-10-11T04:40:18.937Z,9.280047
2022-10-11T04:41:18.949Z,9.279923
2022-10-11T04:42:18.892Z,9.279890
2022-10-11T04:43:18.877Z,9.279893
2022-10-11T04:44:18.860Z,9.279738
2022-10-11T04:45:18.838Z,9.279789
2022-10-11T04:46:18.849Z,9.279855
2022-10-11T04:47:18.806Z,9.279694
2022-10-11T04:48:18.778Z,9.279873
2022-10-11T04:49:18.762Z,9.279729
2022-10-11T04:50:18.743Z,9.279775
2022-10-11T04:51:18.752Z,9.279857
2022-10-11T04:52:22.121Z,9.279922
2022-10-11T04:53:20.687Z,9.279817
2022-10-11T04:54:18.685Z,9.279850
2022-10-11T04:55:18.649Z,9.279980
2022-10-11T04:56:18.665Z,9.279992
2022-10-11T04:57:18.612Z,9.279924
2022-10-11T04:58:18.598Z,9.279937
2022-10-11T04:59:18.577Z,9.279911
2022-10-11T05:00:18.553Z,9.279974
2022-10-11T05:01:18.562Z,9.279937
2022-10-11T05:02:18.566Z,9.279922
2022-10-11T05:03:18.517Z,9.279989
2022-10-11T05:04:18.494Z,9.279942
2022-10-11T05:05:18.464Z,9.279900
2022-10-11T05:06:18.483Z,9.279846
2022-10-11T05:07:18.424Z,9.279799
2022-10-11T05:08:18.405Z,9.279747
2022-10-11T05:09:18.384Z,9.279864
2022-10-11T05:10:18.382Z,9.279927
2022-10-11T05:11:18.375Z,9.279923
2022-10-11T05:12:18.327Z,9.279860
2022-10-11T05:13:18.309Z,9.279949
2022-10-11T05:14:18.290Z,9.279980
2022-10-11T05:15:18.271Z,9.279991
2022-10-11T05:16:18.554Z,9.279928
2022-10-11T05:17:18.238Z,9.279955
2022-10-11T05:18:18.215Z,9.279962
2022-10-11T05:19:18.206Z,9.279860
2022-10-11T05:20:18.182Z,9.279910
2022-10-11T05:21:18.608Z,9.279943
2022-10-11T05:22:18.144Z,9.280057
2022-10-11T05:23:18.124Z,9.280409
2022-10-11T05:24:18.107Z,9.280144
2022-10-11T05:25:18.087Z,9.280081
2022-10-11T05:26:18.095Z,9.279943
2022-10-11T05:27:18.054Z,9.279961
2022-10-11T05:28:18.054Z,9.280110
2022-10-11T05:29:18.058Z,9.280019
2022-10-11T05:30:17.997Z,9.280026
2022-10-11T05:31:18.007Z,9.280014
2022-10-11T05:32:18.603Z,9.280049
2022-10-11T05:33:17.942Z,9.280113
2022-10-11T05:34:17.929Z,9.280077
2022-10-11T05:35:17.905Z,9.280024
2022-10-11T05:36:17.929Z,9.279894
2022-10-11T05:37:17.872Z,9.280035
2022-10-11T05:38:17.854Z,9.280118
2022-10-11T05:39:17.834Z,9.280078
2022-10-11T05:40:17.819Z,9.280072
2022-10-11T05:41:17.823Z,9.280078
2022-10-11T05:42:17.783Z,9.280012
2022-10-11T05:43:17.766Z,9.280043
2022-10-11T05:44:17.740Z,9.280087
2022-10-11T05:45:17.722Z,9.279908
2022-10-11T05:46:17.730Z,9.280017
2022-10-11T05:47:17.687Z,9.279969
2022-10-11T05:48:17.668Z,9.280032
2022-10-11T05:49:17.654Z,9.279936
2022-10-11T05:50:21.976Z,9.279974
2022-10-11T05:51:19.649Z,9.279953
2022-10-11T05:52:17.594Z,9.279981
2022-10-11T05:53:17.581Z,9.280005
2022-10-11T05:54:18.091Z,9.280029
2022-10-11T05:55:17.549Z,9.280034
2022-10-11T05:56:17.557Z,9.279993
2022-10-11T05:57:17.508Z,9.280006
2022-10-11T05:58:17.491Z,9.280057
2022-10-11T05:59:17.474Z,9.279960
2022-10-11T06:00:17.457Z,9.279976
2022-10-11T06:01:17.600Z,9.279972
2022-10-11T06:02:17.425Z,9.279963
2022-10-11T06:03:17.402Z,9.279956
2022-10-11T06:04:17.383Z,9.279961
2022-10-11T06:05:17.374Z,9.279939
2022-10-11T06:06:17.378Z,9.279943
2022-10-11T06:07:17.333Z,9.279925
2022-10-11T06:08:17.314Z,9.280035
2022-10-11T06:09:17.298Z,9.279965
2022-10-11T06:10:17.279Z,9.279906
2022-10-11T06:11:17.286Z,9.279920
2022-10-11T06:12:17.242Z,9.280080
2022-10-11T06:13:17.225Z,9.280007
2022-10-11T06:14:17.205Z,9.280025
2022-10-11T06:15:17.187Z,9.279984
2022-10-11T06:16:17.197Z,9.279981
2022-10-11T06:17:17.153Z,9.279984
2022-10-11T06:18:17.132Z,9.279940
2022-10-11T06:19:18.078Z,9.279954
2022-10-11T06:20:18.093Z,9.279958
2022-10-11T06:21:18.102Z,9.279923
2022-10-11T06:22:17.068Z,9.279897
2022-10-11T06:23:17.043Z,9.279886
2022-10-11T06:24:17.019Z,9.279976
2022-10-11T06:25:16.994Z,9.279968
2022-10-11T06:26:18.592Z,9.279989
2022-10-11T06:27:16.966Z,9.279978
2022-10-11T06:28:17.019Z,9.280013
2022-10-11T06:29:16.934Z,9.280005
2022-10-11T06:30:16.912Z,9.279927
2022-10-11T06:31:16.921Z,9.279864
2022-10-11T06:32:16.874Z,9.279865
2022-10-11T06:33:16.854Z,9.279953
2022-10-11T06:34:16.841Z,9.279948
2022-10-11T06:35:16.835Z,9.279915
2022-10-11T06:36:16.841Z,9.279905
2022-10-11T06:37:16.788Z,9.279860
2022-10-11T06:38:16.767Z,9.279865
2022-10-11T06:39:16.753Z,9.279881
2022-10-11T06:40:16.737Z,9.279720
2022-10-11T06:41:16.745Z,9.279869
2022-10-11T06:42:16.697Z,9.279973
2022-10-11T06:43:16.683Z,9.279951
2022-10-11T06:44:16.671Z,9.280005
2022-10-11T06:45:16.653Z,9.280096
2022-10-11T06:46:16.659Z,9.279987
2022-10-11T06:47:16.613Z,9.279847
2022-10-11T06:48:16.592Z,9.279956
2022-10-11T06:49:22.180Z,9.279943
2022-10-11T06:50:34.906Z,9.280035
2022-10-11T06:51:17.570Z,9.279939
2022-10-11T06:52:16.530Z,9.279897
2022-10-11T06:53:16.506Z,9.279917
2022-10-11T06:54:16.513Z,9.280127
2022-10-11T06:55:16.468Z,9.279871
2022-10-11T06:56:16.480Z,9.279711
2022-10-11T06:57:16.436Z,9.279793
2022-10-11T06:58:16.416Z,9.279802
2022-10-11T06:59:16.401Z,9.279783
2022-10-11T07:00:17.079Z,9.279759
2022-10-11T07:01:16.415Z,9.279742
2022-10-11T07:02:16.349Z,9.279740
2022-10-11T07:03:16.326Z,9.279800
2022-10-11T07:04:16.310Z,9.279738
2022-10-11T07:05:16.293Z,9.279794
2022-10-11T07:06:16.305Z,9.279911
2022-10-11T07:07:16.262Z,9.279859
2022-10-11T07:08:16.242Z,9.279855
2022-10-11T07:09:16.225Z,9.279726
2022-10-11T07:10:16.202Z,9.279799
2022-10-11T07:11:16.220Z,9.279905
2022-10-11T07:12:16.169Z,9.279872
2022-10-11T07:13:17.321Z,9.279786
2022-10-11T07:14:17.134Z,9.279772
2022-10-11T07:15:16.114Z,9.279779
2022-10-11T07:16:16.122Z,9.279869
2022-10-11T07:17:16.105Z,9.279968
2022-10-11T07:18:16.084Z,9.279876
2022-10-11T07:19:16.043Z,9.279832
2022-10-11T07:20:16.027Z,9.279878
2022-10-11T07:21:16.034Z,9.279888
2022-10-11T07:22:15.987Z,9.279789
2022-10-11T07:23:15.977Z,9.279890
2022-10-11T07:24:15.951Z,9.279859
2022-10-11T07:25:15.940Z,9.279886
2022-10-11T07:26:15.946Z,9.279711
2022-10-11T07:27:15.901Z,9.279825
2022-10-11T07:28:15.919Z,9.279904
2022-10-11T07:29:15.871Z,9.279840
2022-10-11T07:30:15.847Z,9.279809
2022-10-11T07:31:15.861Z,9.279868
2022-10-11T07:32:15.812Z,9.279894
2022-10-11T07:33:16.462Z,9.280001
2022-10-11T07:34:15.780Z,9.279917
2022-10-11T07:35:15.753Z,9.279738
2022-10-11T07:36:15.771Z,9.279687
2022-10-11T07:37:15.747Z,9.279733
2022-10-11T07:38:15.706Z,9.279866
2022-10-11T07:39:15.690Z,9.279902
2022-10-11T07:40:15.673Z,9.279861
2022-10-11T07:41:15.687Z,9.279831
2022-10-11T07:42:15.643Z,9.279783
2022-10-11T07:43:15.631Z,9.279827
2022-10-11T07:44:16.457Z,9.279851
2022-10-11T07:45:15.594Z,9.279903
2022-10-11T07:46:15.596Z,9.279786
2022-10-11T07:47:15.555Z,9.279774
2022-10-11T07:48:15.533Z,9.279845
2022-10-11T07:49:15.515Z,9.279796
2022-10-11T07:50:15.500Z,9.279914
2022-10-11T07:51:15.518Z,9.279802
2022-10-11T07:52:15.464Z,9.279859
2022-10-11T07:53:15.454Z,9.279880
2022-10-11T07:54:15.426Z,9.279917
2022-10-11T07:55:15.409Z,9.279840
2022-10-11T07:56:15.447Z,9.279916
2022-10-11T07:57:15.389Z,9.279993
2022-10-11T07:58:15.352Z,9.279956
2022-10-11T07:59:15.337Z,9.279956
2022-10-11T08:00:15.322Z,9.279890
2022-10-11T08:01:15.355Z,9.279854
2022-10-11T08:02:15.279Z,9.279818
2022-10-11T08:03:15.264Z,9.279800
2022-10-11T08:04:15.289Z,9.279756
2022-10-11T08:05:15.234Z,9.279771
2022-10-11T08:06:15.238Z,9.279749
2022-10-11T08:07:15.195Z,9.279784
2022-10-11T08:08:15.175Z,9.279761
2022-10-11T08:09:15.169Z,9.279717
2022-10-11T08:10:15.136Z,9.279740
2022-10-11T08:11:15.149Z,9.279842
2022-10-11T08:12:15.097Z,9.279936
2022-10-11T08:13:15.103Z,9.279988
2022-10-11T08:14:15.063Z,9.279921
2022-10-11T08:15:15.057Z,9.279854
2022-10-11T08:16:15.032Z,9.279924
2022-10-11T08:17:15.063Z,9.279916
2022-10-11T08:18:14.997Z,9.279918
2022-10-11T08:19:14.971Z,9.279923
2022-10-11T08:20:15.965Z,9.279909
2022-10-11T08:21:14.947Z,9.279919
2022-10-11T08:22:14.952Z,9.280012
2022-10-11T08:23:14.906Z,9.279930
2022-10-11T08:24:14.887Z,9.279908
2022-10-11T08:25:14.873Z,9.279951
2022-10-11T08:26:14.855Z,9.279902
2022-10-11T08:27:14.870Z,9.279968
2022-10-11T08:28:14.863Z,9.279978
2022-10-11T08:29:14.842Z,9.279917
2022-10-11T08:30:15.562Z,9.279929
2022-10-11T08:31:14.794Z,9.279960
2022-10-11T08:32:14.786Z,9.279985
2022-10-11T08:33:14.741Z,9.279962
2022-10-11T08:34:14.716Z,9.279955
2022-10-11T08:35:14.695Z,9.279876
2022-10-11T08:36:14.680Z,9.279878
2022-10-11T08:37:14.704Z,9.279901
2022-10-11T08:38:14.643Z,9.279978
2022-10-11T08:39:14.629Z,9.279968
2022-10-11T08:40:14.604Z,9.279962
2022-10-11T08:41:14.611Z,9.279965
2022-10-11T08:42:14.604Z,9.279940
2022-10-11T08:43:15.445Z,9.279893
2022-10-11T08:44:14.539Z,9.279960
2022-10-11T08:45:14.553Z,9.279996
2022-10-11T08:46:14.504Z,9.279963
2022-10-11T08:47:14.517Z,9.279924
2022-10-11T08:48:14.472Z,9.279923
2022-10-11T08:49:14.462Z,9.279922
2022-10-11T08:50:14.438Z,9.279904
2022-10-11T08:51:14.415Z,9.279955
2022-10-11T08:52:14.423Z,9.279878
2022-10-11T08:53:14.378Z,9.279902
2022-10-11T08:54:14.357Z,9.279892
2022-10-11T08:55:14.341Z,9.279859
2022-10-11T08:56:14.324Z,9.279894
2022-10-11T08:57:14.352Z,9.279850
2022-10-11T08:58:14.287Z,9.279904
2022-10-11T08:59:14.277Z,9.279941
2022-10-11T09:00:14.271Z,9.279954
2022-10-11T09:01:14.283Z,9.279943
2022-10-11T09:02:15.256Z,9.279880
2022-10-11T09:03:14.210Z,9.279962
2022-10-11T09:04:14.178Z,9.279911
2022-10-11T09:05:14.155Z,9.279891
2022-10-11T09:06:14.143Z,9.279859
2022-10-11T09:07:14.142Z,9.279881
2022-10-11T09:08:14.100Z,9.279930
2022-10-11T09:09:14.078Z,9.279947
2022-10-11T09:10:14.061Z,9.279965
2022-10-11T09:11:14.043Z,9.279962
2022-10-11T09:12:14.932Z,9.279897
2022-10-11T09:13:14.028Z,9.279895
2022-10-11T09:14:13.983Z,9.280026
2022-10-11T09:15:13.966Z,9.279979
2022-10-11T09:16:13.950Z,9.279893
2022-10-11T09:17:13.952Z,9.279926
2022-10-11T09:18:14.911Z,9.279840
2022-10-11T09:19:13.894Z,9.279920
2022-10-11T09:20:13.874Z,9.279980
2022-10-11T09:21:13.856Z,9.279941
2022-10-11T09:22:13.860Z,9.279805
2022-10-11T09:23:13.828Z,9.279871
2022-10-11T09:24:13.802Z,9.279831
2022-10-11T09:25:13.773Z,9.279948
2022-10-11T09:26:13.760Z,9.279978
2022-10-11T09:27:13.768Z,9.279950
2022-10-11T09:28:13.744Z,9.279904
2022-10-11T09:29:13.696Z,9.279971
2022-10-11T09:30:13.676Z,9.280055
2022-10-11T09:31:13.659Z,9.279928
2022-10-11T09:32:13.664Z,9.279891
2022-10-11T09:33:13.615Z,9.279927
2022-10-11T09:34:13.599Z,9.279971
2022-10-11T09:35:13.578Z,9.279909
2022-10-11T09:36:13.565Z,9.279946
2022-10-11T09:37:13.565Z,9.279909
2022-10-11T09:38:13.520Z,9.279891
2022-10-11T09:39:13.501Z,9.279830
2022-10-11T09:40:13.480Z,9.279900
2022-10-11T09:41:13.459Z,9.279923
2022-10-11T09:42:13.458Z,9.279902
2022-10-11T09:43:14.415Z,9.279862
2022-10-11T09:44:13.395Z,9.279944
2022-10-11T09:45:14.116Z,9.279781
2022-10-11T09:46:13.374Z,9.279922
2022-10-11T09:47:13.931Z,9.280102
2022-10-11T09:48:13.307Z,9.280096
2022-10-11T09:49:13.300Z,9.279985
2022-10-11T09:50:13.262Z,9.280047
2022-10-11T09:51:13.267Z,9.280156
2022-10-11T09:52:13.226Z,9.280085
2022-10-11T09:53:13.206Z,9.280045
2022-10-11T09:54:13.167Z,9.279860
2022-10-11T09:55:16.422Z,9.279884
2022-10-11T09:56:15.160Z,9.279912
2022-10-11T09:57:13.101Z,9.279988
2022-10-11T09:58:13.085Z,9.279983
2022-10-11T09:59:13.095Z,9.279902
2022-10-11T10:00:13.265Z,9.279890
2022-10-11T10:01:13.079Z,9.279784
2022-10-11T10:02:13.682Z,9.279677
2022-10-11T10:03:12.994Z,9.279705
2022-10-11T10:04:12.994Z,9.279461
2022-10-11T10:05:13.432Z,9.279797
2022-10-11T10:06:12.903Z,9.279823
2022-10-11T10:07:12.911Z,9.279813
2022-10-11T10:08:12.907Z,9.279721
2022-10-11T10:09:12.857Z,9.279845
2022-10-11T10:10:12.831Z,9.279747
2022-10-11T10:11:12.821Z,9.279905
2022-10-11T10:12:12.770Z,9.279894
2022-10-11T10:13:12.756Z,9.279868
2022-10-11T10:14:12.722Z,9.279880
2022-10-11T10:15:12.741Z,9.279917
2022-10-11T10:16:12.728Z,9.279947
2022-10-11T10:17:12.673Z,9.280012
2022-10-11T10:18:12.634Z,9.279920
2022-10-11T10:19:12.612Z,9.279840
2022-10-11T10:20:12.597Z,9.279760
2022-10-11T10:21:12.597Z,9.279900
2022-10-11T10:22:12.563Z,9.280070
2022-10-11T10:23:12.541Z,9.279933
2022-10-11T10:24:12.504Z,9.279803
2022-10-11T10:25:13.423Z,9.279961
2022-10-11T10:26:12.443Z,9.279900
2022-10-11T10:27:14.429Z,9.279890
2022-10-11T10:28:12.463Z,9.279885
2022-10-11T10:29:12.402Z,9.279784
2022-10-11T10:30:12.377Z,9.279787
2022-10-11T10:31:12.931Z,9.279803
2022-10-11T10:32:14.875Z,9.279794
2022-10-11T10:33:13.290Z,9.279895
2022-10-11T10:34:12.275Z,9.279841
2022-10-11T10:35:12.251Z,9.279883
2022-10-11T10:36:12.225Z,9.279706
2022-10-11T10:37:12.229Z,9.279863
2022-10-11T10:38:12.186Z,9.279838
2022-10-11T10:39:12.150Z,9.279870
2022-10-11T10:40:12.147Z,9.279817
2022-10-11T10:41:12.117Z,9.279886
2022-10-11T10:42:12.115Z,9.279940
2022-10-11T10:43:12.068Z,9.279995
2022-10-11T10:44:12.037Z,9.279846
2022-10-11T10:45:13.694Z,9.279534
2022-10-11T10:46:13.005Z,9.279533
2022-10-11T10:47:12.011Z,9.279666
2022-10-11T10:48:11.956Z,9.279962
2022-10-11T10:49:48.508Z,9.280007
2022-10-11T10:50:13.927Z,9.279873
2022-10-11T10:51:11.902Z,9.279868
2022-10-11T10:52:11.893Z,9.279849
2022-10-11T10:53:11.842Z,9.279813
2022-10-11T10:54:11.828Z,9.279946
2022-10-11T10:55:11.818Z,9.279649
2022-10-11T10:56:11.792Z,9.279491
2022-10-11T10:57:11.798Z,9.279506
2022-10-11T10:58:15.155Z,9.279773
2022-10-11T10:59:13.735Z,9.279777
2022-10-11T11:00:11.697Z,9.279763
2022-10-11T11:01:11.674Z,9.279770
2022-10-11T11:02:38.509Z,9.279758
2022-10-11T11:03:13.634Z,9.279733
2022-10-11T11:04:11.609Z,9.279739
2022-10-11T11:05:11.583Z,9.279761
2022-10-11T11:06:11.554Z,9.279799
2022-10-11T11:07:11.590Z,9.279786
2022-10-11T11:08:11.522Z,9.279775
2022-10-11T11:09:11.495Z,9.279834
2022-10-11T11:10:11.475Z,9.279903
2022-10-11T11:11:11.442Z,9.279932
2022-10-11T11:12:11.448Z,9.280024
2022-10-11T11:13:11.400Z,9.279911
2022-10-11T11:14:11.377Z,9.279869
2022-10-11T11:15:11.357Z,9.279852
2022-10-11T11:16:11.344Z,9.279819
2022-10-11T11:17:11.335Z,9.279852
2022-10-11T11:18:11.283Z,9.279920
2022-10-11T11:19:11.268Z,9.280054
2022-10-11T11:20:11.239Z,9.279943
2022-10-11T11:21:11.213Z,9.279873
2022-10-11T11:22:11.225Z,9.279904
2022-10-11T11:23:11.167Z,9.279946
2022-10-11T11:24:11.149Z,9.280003
2022-10-11T11:25:11.121Z,9.280002
2022-10-11T11:26:11.098Z,9.280058
2022-10-11T11:27:11.110Z,9.279943
2022-10-11T11:28:11.125Z,9.280028
2022-10-11T11:29:11.049Z,9.280025
2022-10-11T11:30:11.012Z,9.280025
2022-10-11T11:31:10.988Z,9.279948
2022-10-11T11:32:11.012Z,9.279921
2022-10-11T11:33:10.941Z,9.279919
2022-10-11T11:34:10.913Z,9.279969
2022-10-11T11:35:10.903Z,9.279998
2022-10-11T11:36:10.866Z,9.279930
2022-10-11T11:37:11.524Z,9.280090
2022-10-11T11:38:10.823Z,9.279977
2022-10-11T11:39:10.798Z,9.279882
2022-10-11T11:40:10.774Z,9.279866
2022-10-11T11:41:10.753Z,9.279862
2022-10-11T11:42:10.757Z,9.279900
2022-10-11T11:43:10.711Z,9.279829
2022-10-11T11:44:10.681Z,9.279963